Time;durP1;ratioP1;P1;durP2;ratioP2;P2;SDS_P1;SDS_P2;PMS_P1;PMS_P2;Temp;Humidity;BMP_temperature;BMP_pressure;BME280_temperature;BME280_humidity;BME280_pressure;Samples;Min_cycle;Max_cycle;Signal;HPM_P1;HPM_P2
2020/12/26 00:02:27;;;;;;;8.68;2.95;;;1.40;99.90;;;;;;1860378;29;20479;31
2020/12/26 00:08:02;;;;;;;8.07;3.00;;;1.40;99.90;;;;;;2058686;29;20237;-91
2020/12/26 00:11:10;;;;;;;7.35;3.33;;;1.50;99.90;;;;;;1878778;29;20500;31
2020/12/26 00:13:56;;;;;;;6.93;3.47;;;1.40;99.90;;;;;;2239887;29;20187;-92
2020/12/26 00:17:02;;;;;;;9.52;4.55;;;1.50;99.90;;;;;;2014063;29;20447;-92
2020/12/26 00:19:52;;;;;;;5.80;2.90;;;1.40;99.90;;;;;;2221317;29;20293;-94
2020/12/26 00:23:03;;;;;;;5.43;2.58;;;1.40;99.90;;;;;;1962808;29;20176;-91
2020/12/26 00:26:15;;;;;;;5.28;2.28;;;1.30;99.90;;;;;;2137489;29;20137;-90
2020/12/26 00:29:15;;;;;;;4.57;2.62;;;1.30;99.90;;;;;;1957272;29;20199;-91
2020/12/26 00:32:25;;;;;;;5.65;2.62;;;1.30;99.90;;;;;;1959112;29;20200;-91
2020/12/26 00:35:32;;;;;;;7.43;2.97;;;1.30;99.90;;;;;;2156868;28;21001;31
2020/12/26 00:38:18;;;;;;;4.90;3.05;;;1.30;99.90;;;;;;2097963;28;20517;-93
2020/12/26 00:41:25;;;;;;;5.30;2.20;;;1.30;99.90;;;;;;2416392;29;20443;-93
2020/12/26 00:44:33;;;;;;;4.87;1.83;;;1.30;99.90;;;;;;2048928;29;20175;-92
2020/12/26 00:47:39;;;;;;;8.57;2.67;;;1.30;99.90;;;;;;2080841;29;20836;-91
2020/12/26 00:53:37;;;;;;;5.82;2.58;;;1.20;99.90;;;;;;2146012;29;20457;-91
2020/12/26 00:56:50;;;;;;;5.10;2.62;;;1.30;99.90;;;;;;2116382;29;20487;31
2020/12/26 00:59:53;;;;;;;5.28;2.37;;;1.30;99.90;;;;;;1999319;29;20153;-90
2020/12/26 01:08:02;;;;;;;4.35;2.00;;;1.30;99.90;;;;;;1910298;29;20503;-89
2020/12/26 01:11:24;;;;;;;5.97;2.83;;;1.30;99.90;;;;;;1938586;29;20112;-88
2020/12/26 01:14:33;;;;;;;5.85;2.50;;;1.30;99.90;;;;;;2239791;28;20159;-91
2020/12/26 01:17:39;;;;;;;5.50;2.62;;;1.30;99.90;;;;;;2154771;28;20438;31
2020/12/26 01:20:39;;;;;;;6.07;2.30;;;1.30;99.90;;;;;;1960854;29;20653;-93
2020/12/26 01:25:59;;;;;;;6.05;2.45;;;1.30;99.90;;;;;;2012383;29;21153;-89
2020/12/26 01:29:08;;;;;;;4.60;2.47;;;1.30;99.90;;;;;;2106040;29;20235;-91
2020/12/26 01:31:52;;;;;;;3.87;2.37;;;1.30;99.90;;;;;;1995796;29;20151;-91
2020/12/26 01:34:54;;;;;;;5.50;2.72;;;1.30;99.90;;;;;;1992515;29;20190;-93
2020/12/26 01:37:41;;;;;;;5.55;2.28;;;1.30;99.90;;;;;;2078016;29;20549;-90
2020/12/26 01:40:52;;;;;;;5.20;2.25;;;1.30;99.90;;;;;;2527234;29;20219;-90
2020/12/26 01:43:57;;;;;;;4.57;2.62;;;1.30;99.90;;;;;;1981719;29;21148;-91
2020/12/26 01:47:02;;;;;;;5.10;2.90;;;1.30;99.90;;;;;;1903837;29;20194;-90
2020/12/26 01:49:59;;;;;;;4.62;2.53;;;1.30;99.90;;;;;;1887995;29;20811;-89
2020/12/26 01:53:09;;;;;;;5.62;3.47;;;1.30;99.90;;;;;;1876131;29;20520;-90
2020/12/26 01:56:01;;;;;;;5.00;2.75;;;1.30;99.90;;;;;;1933834;29;20133;-90
2020/12/26 01:59:04;;;;;;;;;;;1.30;99.90;;;;;;1998859;29;20302;-90
2020/12/26 02:01:52;;;;;;;7.10;2.40;;;1.30;99.90;;;;;;1884992;29;20444;-90
2020/12/26 02:04:56;;;;;;;5.65;3.05;;;1.30;99.90;;;;;;2078656;29;21425;-89
2020/12/26 02:07:46;;;;;;;8.05;2.97;;;1.20;99.90;;;;;;1871387;29;20764;-90
2020/12/26 02:10:52;;;;;;;;;;;1.30;99.90;;;;;;1878454;29;20519;-89
2020/12/26 02:13:43;;;;;;;6.78;3.05;;;1.30;99.90;;;;;;1869846;29;20406;-89
2020/12/26 02:16:50;;;;;;;4.47;2.80;;;1.30;99.90;;;;;;1934305;29;20181;-91
2020/12/26 02:19:40;;;;;;;5.72;3.40;;;1.30;99.90;;;;;;1892495;29;20501;-88
2020/12/26 02:22:41;;;;;;;8.47;3.50;;;1.30;99.90;;;;;;1936743;29;20180;-91
2020/12/26 02:25:32;;;;;;;4.57;2.97;;;1.30;99.90;;;;;;1877458;29;20562;-91
2020/12/26 02:28:37;;;;;;;6.20;3.33;;;1.40;99.90;;;;;;2032337;29;20457;-91
2020/12/26 02:31:19;;;;;;;5.03;3.42;;;1.30;99.90;;;;;;1916863;29;20584;-91
2020/12/26 02:34:23;;;;;;;6.60;3.85;;;1.40;99.90;;;;;;1879932;29;20504;-91
2020/12/26 02:39:51;;;;;;;5.70;3.58;;;1.40;99.90;;;;;;1912797;29;20116;-92
2020/12/26 02:42:59;;;;;;;5.40;3.33;;;1.40;99.90;;;;;;1868843;29;20532;-91
2020/12/26 02:45:49;;;;;;;7.15;3.22;;;1.40;99.90;;;;;;2015634;29;21001;-91
2020/12/26 02:48:52;;;;;;;5.93;3.83;;;1.50;99.90;;;;;;1880651;29;20550;-92
2020/12/26 02:51:38;;;;;;;4.55;3.35;;;1.50;99.90;;;;;;1953551;29;20190;-91
2020/12/26 02:54:41;;;;;;;5.80;3.90;;;1.40;99.90;;;;;;1891741;29;22554;-91
2020/12/26 02:57:27;;;;;;;6.25;3.60;;;1.50;99.90;;;;;;1872673;29;20151;-90
2020/12/26 03:00:31;;;;;;;6.82;4.05;;;1.50;99.90;;;;;;1897805;28;20519;-90
2020/12/26 03:03:20;;;;;;;7.33;3.63;;;1.50;99.90;;;;;;1887227;29;20515;-90
2020/12/26 03:06:23;;;;;;;6.73;4.03;;;1.50;99.90;;;;;;1955052;29;20258;-90
2020/12/26 03:09:30;;;;;;;8.73;3.97;;;1.50;99.90;;;;;;2202944;29;20455;-92
2020/12/26 03:16:28;;;;;;;6.10;3.95;;;1.60;99.90;;;;;;3122329;28;20385;31
2020/12/26 03:41:13;;;;;;;8.25;4.60;;;1.60;99.90;;;;;;2411345;29;20204;-93
2020/12/26 03:45:16;;;;;;;;;;;;;;;;;;;;;
2020/12/26 03:48:49;;;;;;;7.00;3.95;;;1.60;99.90;;;;;;2544451;29;21322;-93
2020/12/26 03:57:11;;;;;;;13.23;4.43;;;1.50;99.90;;;;;;2570752;29;20443;31
2020/12/26 04:04:02;;;;;;;8.05;3.97;;;1.60;99.90;;;;;;2177289;28;20393;31
2020/12/26 04:07:30;;;;;;;7.47;3.50;;;1.60;99.90;;;;;;2100054;29;20448;-93
2020/12/26 04:10:32;;;;;;;8.38;3.78;;;1.50;99.90;;;;;;2665781;29;21260;31
2020/12/26 04:16:12;;;;;;;6.60;3.83;;;1.60;99.90;;;;;;2353173;29;20430;-92
2020/12/26 04:19:36;;;;;;;8.40;4.18;;;1.60;99.90;;;;;;2132394;29;20452;-91
2020/12/26 04:26:21;;;;;;;7.03;3.85;;;1.60;99.90;;;;;;3317455;29;20134;-93
2020/12/26 04:29:53;;;;;;;9.18;4.68;;;1.60;99.90;;;;;;2211144;29;20180;-92
2020/12/26 04:32:53;;;;;;;7.07;3.17;;;1.60;99.90;;;;;;1926034;29;20851;-92
2020/12/26 04:36:03;;;;;;;6.03;3.65;;;1.60;99.90;;;;;;2405340;29;20455;-93
2020/12/26 04:39:01;;;;;;;7.55;3.80;;;1.60;99.90;;;;;;1989768;29;20540;-91
2020/12/26 04:42:24;;;;;;;12.90;5.10;;;1.60;99.90;;;;;;2157481;28;20461;31
2020/12/26 04:50:28;;;;;;;8.50;3.87;;;1.60;99.90;;;;;;2150201;29;20477;-91
2020/12/26 04:53:53;;;;;;;9.00;3.67;;;1.60;99.90;;;;;;2231174;28;21616;-93
2020/12/26 04:57:30;;;;;;;4.50;2.72;;;1.60;99.90;;;;;;2192888;28;20515;-93
2020/12/26 05:03:41;;;;;;;6.90;3.03;;;1.60;99.90;;;;;;2206158;28;20555;-92
2020/12/26 05:07:01;;;;;;;4.30;2.28;;;1.60;99.90;;;;;;2322522;28;20152;-92
2020/12/26 05:17:48;;;;;;;5.72;2.20;;;1.50;99.90;;;;;;2183703;28;20431;31
2020/12/26 05:21:01;;;;;;;4.22;2.20;;;1.50;99.90;;;;;;2116924;29;21248;-92
2020/12/26 05:24:21;;;;;;;2.90;1.80;;;1.50;99.90;;;;;;2184668;28;20505;31
2020/12/26 05:27:44;;;;;;;4.80;1.83;;;1.50;99.90;;;;;;2414079;28;20120;-91
2020/12/26 05:31:05;;;;;;;;;;;1.50;99.90;;;;;;2368445;28;20356;-91
2020/12/26 05:39:44;;;;;;;6.95;1.80;;;1.50;99.90;;;;;;2419698;29;20425;31
2020/12/26 05:43:00;;;;;;;4.03;1.60;;;1.40;99.90;;;;;;2176849;28;20487;31
2020/12/26 05:46:13;;;;;;;7.65;1.85;;;1.40;99.90;;;;;;2429731;28;20482;31
2020/12/26 05:49:37;;;;;;;5.05;1.62;;;1.40;99.90;;;;;;2124889;28;20515;-92
2020/12/26 05:53:00;;;;;;;4.07;1.52;;;1.40;99.90;;;;;;2422409;28;20508;-89
2020/12/26 05:58:51;;;;;;;2.90;1.75;;;1.40;99.90;;;;;;2750890;28;20166;-92
2020/12/26 06:01:59;;;;;;;;;;;;;;;;;;;;;
2020/12/26 06:05:24;;;;;;;3.62;1.65;;;1.40;99.90;;;;;;1980188;28;21670;-91
2020/12/26 06:08:46;;;;;;;8.60;2.20;;;1.40;99.90;;;;;;2009704;28;20238;-90
2020/12/26 06:12:17;;;;;;;4.82;1.70;;;1.40;99.90;;;;;;2024748;29;20159;-91
2020/12/26 06:15:42;;;;;;;5.55;1.92;;;1.40;99.90;;;;;;2216888;29;20129;-90
2020/12/26 06:19:17;;;;;;;6.68;2.00;;;1.30;99.90;;;;;;1648788;28;20460;-89
2020/12/26 06:22:43;;;;;;;3.72;1.80;;;1.40;99.90;;;;;;2180911;28;20427;31
2020/12/26 06:25:32;;;;;;;3.58;1.85;;;1.50;99.90;;;;;;2071054;28;20166;-91
2020/12/26 06:28:50;;;;;;;3.30;1.60;;;1.30;99.90;;;;;;2171312;29;20397;-89
2020/12/26 06:31:57;;;;;;;4.60;1.87;;;1.30;99.90;;;;;;2161734;28;20449;-88
2020/12/26 06:35:03;;;;;;;5.07;2.42;;;1.30;99.90;;;;;;2153154;29;20471;31
2020/12/26 06:38:30;;;;;;;4.32;1.80;;;1.30;99.90;;;;;;2075370;29;20470;-91
2020/12/26 06:51:55;;;;;;;7.93;5.30;;;1.40;99.90;;;;;;2393555;29;20483;-88
2020/12/26 06:55:39;;;;;;;7.20;3.15;;;1.30;99.90;;;;;;3073288;29;20169;31
2020/12/26 07:09:49;;;;;;;3.08;1.75;;;1.30;99.90;;;;;;2804784;29;20515;-90
2020/12/26 07:13:58;;;;;;;;;;;;;;;;;;;;;
2020/12/26 07:25:25;;;;;;;4.50;1.92;;;1.30;99.90;;;;;;700825;29;20399;-88
2020/12/26 07:36:22;;;;;;;5.57;2.43;;;1.30;99.90;;;;;;3152121;28;20123;31
2020/12/26 07:45:32;;;;;;;4.60;1.40;;;1.30;99.90;;;;;;1132207;28;20444;-88
2020/12/26 07:58:38;;;;;;;8.45;2.72;;;1.30;99.90;;;;;;2213912;28;20493;-90
2020/12/26 08:01:52;;;;;;;7.20;2.10;;;1.30;99.90;;;;;;1630402;28;20481;-90
2020/12/26 08:12:53;;;;;;;7.15;2.17;;;1.30;99.90;;;;;;3038680;28;20480;-89
2020/12/26 08:19:19;;;;;;;5.68;2.67;;;1.40;99.90;;;;;;1823629;28;20521;-90
2020/12/26 08:25:09;;;;;;;7.22;2.17;;;1.40;99.90;;;;;;649684;28;21789;-89
2020/12/26 08:57:31;;;;;;;4.57;2.42;;;1.60;99.90;;;;;;1331413;28;21772;-92
2020/12/26 09:17:14;;;;;;;8.70;3.30;;;1.60;99.90;;;;;;3417076;28;20460;-90
2020/12/26 09:20:19;;;;;;;7.62;2.90;;;1.70;99.90;;;;;;780805;28;20490;-90
2020/12/26 09:31:22;;;;;;;7.47;2.92;;;1.70;99.90;;;;;;1966921;28;20501;-91
2020/12/26 09:35:49;;;;;;;6.28;2.60;;;1.70;99.90;;;;;;2980202;29;20234;-92
2020/12/26 09:47:51;;;;;;;5.88;1.90;;;1.80;99.90;;;;;;4213708;30;20938;31
2020/12/26 10:00:57;;;;;;;5.76;1.56;;;1.90;99.90;;;;;;4094813;30;20153;31
2020/12/26 10:28:55;;;;;;;7.78;2.78;;;2.20;99.90;;;;;;2411094;29;20529;31
2020/12/26 10:32:04;;;;;;;8.27;2.90;;;2.20;99.90;;;;;;1905840;29;20499;-90
2020/12/26 10:35:35;;;;;;;7.12;2.90;;;2.20;99.90;;;;;;979620;29;20624;-91
2020/12/26 10:38:45;;;;;;;6.25;2.47;;;2.20;99.90;;;;;;1874018;29;20471;31
2020/12/26 10:41:45;;;;;;;6.80;2.50;;;2.30;99.90;;;;;;729662;29;20458;-91
2020/12/26 10:56:38;;;;;;;8.13;4.03;;;2.40;99.90;;;;;;2377667;29;20437;31
2020/12/26 11:07:19;;;;;;;8.35;3.42;;;2.50;99.90;;;;;;996988;29;22006;-91
2020/12/26 11:10:18;;;;;;;11.32;5.15;;;2.60;99.90;;;;;;2339846;29;20830;-90
2020/12/26 11:15:49;;;;;;;8.57;4.43;;;2.60;99.90;;;;;;1905353;29;20436;-90
2020/12/26 11:18:54;;;;;;;7.78;3.30;;;2.70;99.90;;;;;;1919857;30;20530;-91
2020/12/26 11:21:37;;;;;;;7.70;2.67;;;2.70;99.90;;;;;;987120;29;21824;-90
2020/12/26 11:24:55;;;;;;;11.93;5.28;;;2.70;99.90;;;;;;701746;29;22022;31
2020/12/26 11:40:14;;;;;;;7.47;3.20;;;2.70;99.90;;;;;;762626;29;21824;-91
2020/12/26 11:43:33;;;;;;;7.18;3.40;;;2.70;99.90;;;;;;966829;29;20537;-91
2020/12/26 11:46:45;;;;;;;9.93;4.43;;;2.80;99.90;;;;;;856622;29;20475;-91
2020/12/26 11:49:40;;;;;;;11.27;5.03;;;2.70;99.90;;;;;;1039555;29;20470;-90
2020/12/26 12:13:48;;;;;;;21.37;11.48;;;2.90;99.90;;;;;;807762;29;21759;-91
2020/12/26 12:23:49;;;;;;;8.43;4.07;;;2.90;99.90;;;;;;2032853;29;20451;-94
2020/12/26 12:27:11;;;;;;;23.00;11.52;;;2.80;99.90;;;;;;2598706;29;20449;31
2020/12/26 12:33:23;;;;;;;7.82;4.30;;;2.90;99.90;;;;;;2665568;29;20376;-91
2020/12/26 12:36:39;;;;;;;13.35;4.53;;;2.90;99.90;;;;;;1465116;29;20425;-91
2020/12/26 12:43:03;;;;;;;8.88;3.80;;;2.90;99.90;;;;;;1561757;29;20497;-89
2020/12/26 12:46:16;;;;;;;12.18;5.70;;;2.90;99.90;;;;;;820946;29;20416;-91
2020/12/26 12:49:23;;;;;;;11.65;6.50;;;2.90;99.90;;;;;;817156;29;20442;-90
2020/12/26 12:52:44;;;;;;;14.52;6.57;;;2.90;99.90;;;;;;1064258;29;20440;-87
2020/12/26 12:55:29;;;;;;;10.38;5.40;;;2.90;99.90;;;;;;665213;29;21910;-88
2020/12/26 13:02:04;;;;;;;11.98;5.22;;;2.90;99.90;;;;;;803664;29;20528;-89
2020/12/26 13:05:25;;;;;;;11.23;5.82;;;2.90;99.90;;;;;;871132;29;21835;-91
2020/12/26 13:11:43;;;;;;;8.50;4.45;;;3.00;99.90;;;;;;1871163;30;20372;-92
2020/12/26 13:14:48;;;;;;;9.03;3.70;;;3.00;99.90;;;;;;1932444;30;20217;-90
2020/12/26 13:18:08;;;;;;;9.07;4.40;;;3.00;99.90;;;;;;929560;30;20419;-91
2020/12/26 13:27:29;;;;;;;5.35;2.20;;;3.10;99.90;;;;;;756434;29;20505;-89
2020/12/26 13:37:55;;;;;;;6.53;2.00;;;3.40;99.90;;;;;;1876271;29;20501;-92
2020/12/26 13:41:02;;;;;;;11.27;3.50;;;3.30;99.90;;;;;;1877657;29;20520;-92
2020/12/26 13:46:34;;;;;;;5.32;2.20;;;3.20;99.90;;;;;;1870370;29;20614;-90
2020/12/26 13:49:58;;;;;;;6.20;2.95;;;3.10;99.90;;;;;;1869712;29;20487;-92
2020/12/26 13:52:52;;;;;;;8.55;3.10;;;3.00;99.90;;;;;;1928109;29;20502;-91
2020/12/26 13:58:31;;;;;;;11.55;5.43;;;3.00;99.90;;;;;;1870631;29;20645;-91
2020/12/26 14:01:45;;;;;;;13.13;5.43;;;2.90;99.90;;;;;;1885718;30;20133;-92
2020/12/26 14:04:58;;;;;;;12.18;5.00;;;2.80;99.90;;;;;;2064193;29;20553;-90
2020/12/26 14:08:06;;;;;;;11.43;4.03;;;2.80;99.90;;;;;;1858540;29;21168;-91
2020/12/26 14:11:34;;;;;;;13.50;6.82;;;2.80;99.90;;;;;;2112950;29;20449;-92
2020/12/26 14:17:23;;;;;;;14.35;7.03;;;2.60;99.90;;;;;;1875216;30;20149;-90
2020/12/26 14:20:51;;;;;;;17.17;9.63;;;2.60;99.90;;;;;;1886013;30;20506;-90
2020/12/26 14:23:45;;;;;;;15.80;8.48;;;2.60;99.90;;;;;;1844695;30;20625;-92
2020/12/26 14:31:58;;;;;;;10.93;4.87;;;2.50;99.90;;;;;;2101921;30;21187;-92
2020/12/26 14:35:10;;;;;;;13.82;3.92;;;2.50;99.90;;;;;;1867868;29;20137;-90
2020/12/26 14:43:00;;;;;;;13.52;3.47;;;2.40;99.90;;;;;;1907832;29;20120;-89
2020/12/26 14:46:13;;;;;;;6.63;2.72;;;2.40;99.90;;;;;;1909596;29;20136;-90
2020/12/26 14:49:21;;;;;;;8.68;2.87;;;2.30;99.90;;;;;;1871325;29;20531;-89
2020/12/26 14:52:50;;;;;;;9.07;2.15;;;2.30;99.90;;;;;;1889716;29;20122;-90
2020/12/26 14:56:03;;;;;;;8.45;2.65;;;2.20;99.90;;;;;;2010838;29;20501;-93
2020/12/26 14:59:11;;;;;;;6.35;2.37;;;2.10;99.90;;;;;;1919214;29;20284;-90
2020/12/26 15:02:13;;;;;;;5.43;2.28;;;2.10;99.90;;;;;;2094087;29;20525;-89
2020/12/26 15:05:20;;;;;;;7.78;2.45;;;2.10;99.90;;;;;;1872736;29;20526;-90
2020/12/26 15:08:33;;;;;;;6.37;2.50;;;2.00;99.90;;;;;;1942581;29;20121;-90
2020/12/26 15:11:38;;;;;;;7.93;2.30;;;1.90;99.90;;;;;;1872177;29;20532;-90
2020/12/26 15:14:47;;;;;;;5.55;2.15;;;1.90;99.90;;;;;;1915914;30;20189;-93
2020/12/26 15:17:50;;;;;;;8.18;2.60;;;1.90;99.90;;;;;;2005118;29;20211;-90
2020/12/26 15:20:45;;;;;;;6.45;2.47;;;1.90;99.90;;;;;;1957619;29;20137;-92
2020/12/26 15:24:00;;;;;;;5.95;2.55;;;1.80;99.90;;;;;;2194791;29;20157;-90
2020/12/26 15:29:23;;;;;;;5.87;2.62;;;1.80;99.90;;;;;;1893721;30;21762;-91
2020/12/26 15:32:37;;;;;;;4.60;1.83;;;1.80;99.90;;;;;;1881306;29;20141;-90
2020/12/26 15:35:46;;;;;;;6.87;2.55;;;1.80;99.90;;;;;;2251274;30;20440;-91
2020/12/26 15:38:53;;;;;;;8.70;2.97;;;1.80;99.90;;;;;;2076279;30;20552;31
2020/12/26 15:42:03;;;;;;;9.65;2.87;;;1.80;99.90;;;;;;1862554;30;20529;-92
2020/12/26 15:50:29;;;;;;;10.15;4.18;;;1.70;99.90;;;;;;2095793;29;20515;-91
2020/12/26 15:53:22;;;;;;;8.10;4.12;;;1.70;99.90;;;;;;1866773;29;20785;-90
2020/12/26 15:56:48;;;;;;;16.37;6.35;;;1.70;99.90;;;;;;2920225;30;20498;-91
2020/12/26 16:00:01;;;;;;;13.65;5.62;;;1.70;99.90;;;;;;1913600;29;20117;-90
2020/12/26 16:03:13;;;;;;;12.23;4.72;;;1.60;99.90;;;;;;1984537;29;20164;-91
2020/12/26 16:13:56;;;;;;;15.88;5.03;;;1.50;99.90;;;;;;1936556;29;20727;-90
2020/12/26 16:16:46;;;;;;;11.18;5.07;;;1.50;99.90;;;;;;2076878;30;20420;-90
2020/12/26 16:19:52;;;;;;;14.32;6.05;;;1.50;99.90;;;;;;1917490;29;20558;-92
2020/12/26 16:22:52;;;;;;;13.18;5.93;;;1.40;99.90;;;;;;1937646;29;21171;-91
2020/12/26 16:25:59;;;;;;;16.85;6.68;;;1.40;99.90;;;;;;2123102;29;20411;31
2020/12/26 16:31:13;;;;;;;16.65;5.32;;;1.30;99.90;;;;;;1933355;29;20226;-90
2020/12/26 16:34:18;;;;;;;13.95;6.37;;;1.30;99.90;;;;;;2114166;29;20451;31
2020/12/26 16:37:22;;;;;;;12.73;5.35;;;1.30;99.90;;;;;;1982278;29;20166;-92
2020/12/26 16:40:27;;;;;;;15.55;6.20;;;1.30;99.90;;;;;;1916962;29;20157;-91
2020/12/26 16:43:16;;;;;;;16.50;5.62;;;1.20;99.90;;;;;;2098791;29;20193;-94
2020/12/26 16:46:24;;;;;;;10.07;5.03;;;1.20;99.90;;;;;;1904394;29;20196;-90
2020/12/26 16:49:18;;;;;;;18.83;7.32;;;1.10;99.90;;;;;;1866204;29;21279;31
2020/12/26 16:52:17;;;;;;;15.77;5.95;;;1.10;99.90;;;;;;2037639;30;20472;-91
2020/12/26 16:55:21;;;;;;;14.20;5.87;;;1.10;99.90;;;;;;1921942;29;21671;-90
2020/12/26 16:58:26;;;;;;;14.60;6.18;;;1.10;99.90;;;;;;1861812;30;20588;-90
2020/12/26 17:03:46;;;;;;;14.65;6.05;;;1.00;99.90;;;;;;1928556;30;20186;-90
2020/12/26 17:07:00;;;;;;;16.52;7.28;;;1.00;99.90;;;;;;1850429;30;20502;-90
2020/12/26 17:12:45;;;;;;;15.25;6.35;;;0.80;99.90;;;;;;2180504;30;20407;-93
2020/12/26 17:19:15;;;;;;;;;;;;;;;;;;;;;
2020/12/26 18:39:50;;;;;;;;;;;;;;;;;;;;;
2020/12/26 18:47:15;;;;;;;;;;;;;;;;;;;;;
2020/12/26 18:51:03;;;;;;;;;;;;;;;;;;;;;
2020/12/26 18:56:36;;;;;;;9.73;5.07;;;0.10;99.90;;;;;;1965919;29;20896;-93
2020/12/26 18:59:54;;;;;;;14.18;6.20;;;0.10;99.90;;;;;;2925717;29;20163;-93
2020/12/26 19:03:15;;;;;;;16.40;7.07;;;0.10;99.90;;;;;;2115724;29;20468;-93
2020/12/26 19:06:21;;;;;;;17.35;7.25;;;0.10;99.90;;;;;;1988566;29;20111;-92
2020/12/26 19:09:12;;;;;;;14.05;8.02;;;0.10;99.90;;;;;;1978747;29;21062;-92
2020/12/26 19:11:58;;;;;;;15.25;8.25;;;0.10;99.90;;;;;;2004352;29;20289;-93
2020/12/26 19:15:04;;;;;;;16.92;8.48;;;0.20;99.90;;;;;;1872012;29;20455;31
2020/12/26 19:17:50;;;;;;;18.08;9.85;;;0.20;99.90;;;;;;731417;29;20424;-91
2020/12/26 19:20:56;;;;;;;16.83;9.00;;;0.30;99.90;;;;;;1938924;29;20863;-91
2020/12/26 19:23:56;;;;;;;21.42;10.00;;;0.20;99.90;;;;;;1861878;29;20521;-93
2020/12/26 19:27:12;;;;;;;23.42;10.68;;;0.20;99.90;;;;;;1866543;29;20530;-93
2020/12/26 19:30:52;;;;;;;20.50;9.32;;;0.20;99.90;;;;;;2379774;29;20542;31
2020/12/26 19:34:06;;;;;;;19.73;7.37;;;0.30;99.90;;;;;;1997319;29;20195;-92
2020/12/26 19:37:06;;;;;;;15.20;7.10;;;0.30;99.90;;;;;;1797095;30;20231;-92
2020/12/26 19:40:14;;;;;;;20.25;8.30;;;0.30;99.90;;;;;;1927452;29;20233;-92
2020/12/26 19:43:24;;;;;;;17.67;7.20;;;0.40;99.90;;;;;;1840651;29;20494;31
2020/12/26 19:46:36;;;;;;;;;;;0.40;99.90;;;;;;1409629;29;21823;-91
2020/12/26 19:49:39;;;;;;;20.88;8.25;;;0.50;99.90;;;;;;1989490;29;20344;-92
2020/12/26 19:53:11;;;;;;;17.08;8.07;;;0.60;99.90;;;;;;985313;30;20466;-91
2020/12/26 19:59:29;;;;;;;17.30;8.07;;;0.60;99.90;;;;;;896983;29;20391;-93
2020/12/26 20:02:36;;;;;;;22.23;8.55;;;0.60;99.90;;;;;;753543;29;20423;-92
2020/12/26 20:12:52;;;;;;;20.08;9.00;;;0.70;99.90;;;;;;1655702;30;20426;-90
2020/12/26 20:19:27;;;;;;;26.45;11.40;;;0.70;99.90;;;;;;655708;30;21877;-90
2020/12/26 20:22:12;;;;;;;24.63;11.10;;;0.70;99.90;;;;;;655222;30;23300;-90
2020/12/26 20:32:26;;;;;;;17.05;8.82;;;0.70;99.90;;;;;;1375400;29;20519;-90
2020/12/26 20:46:26;;;;;;;19.95;8.45;;;0.70;99.90;;;;;;779080;29;20520;-90
2020/12/26 20:53:16;;;;;;;15.50;8.27;;;0.70;99.90;;;;;;656428;29;21916;-90
2020/12/26 21:07:17;;;;;;;22.98;8.55;;;0.70;99.90;;;;;;843966;29;21822;-90
2020/12/26 21:21:05;;;;;;;18.08;8.52;;;0.70;99.90;;;;;;1813298;29;20662;-93
2020/12/26 21:34:47;;;;;;;17.95;9.15;;;0.70;99.90;;;;;;1898146;29;20390;-91
2020/12/26 22:00:09;;;;;;;17.98;9.02;;;0.50;99.90;;;;;;852389;29;20412;-91
2020/12/26 22:10:33;;;;;;;15.68;8.05;;;0.40;99.90;;;;;;2001288;29;21057;-91
2020/12/26 22:13:30;;;;;;;19.05;7.50;;;0.40;99.90;;;;;;819118;29;21782;-91
2020/12/26 22:24:20;;;;;;;17.77;7.75;;;0.40;99.90;;;;;;1857161;29;21836;-90
2020/12/26 22:27:39;;;;;;;14.18;7.47;;;0.30;99.90;;;;;;1032988;29;20396;-91
2020/12/26 22:38:25;;;;;;;29.63;10.95;;;0.20;99.90;;;;;;850172;29;20429;-89
2020/12/26 22:41:14;;;;;;;21.75;8.60;;;0.20;99.90;;;;;;2008215;29;20301;-90
2020/12/26 22:44:22;;;;;;;19.17;8.50;;;0.20;99.90;;;;;;1879092;29;20528;-91
2020/12/26 22:51:04;;;;;;;17.27;8.27;;;0.20;99.90;;;;;;1987331;29;21134;-88
2020/12/26 22:53:53;;;;;;;17.05;7.68;;;0.10;99.90;;;;;;1850578;29;20462;31
2020/12/26 22:56:58;;;;;;;16.00;7.93;;;0.10;99.90;;;;;;1893057;29;20121;-88
2020/12/26 23:03:29;;;;;;;17.55;7.87;;;0.00;99.90;;;;;;1963518;29;20221;-91
2020/12/26 23:06:19;;;;;;;17.42;7.68;;;0.00;99.90;;;;;;1915037;29;20197;-90
2020/12/26 23:27:22;;;;;;;13.07;7.35;;;-0.10;99.90;;;;;;1876406;29;20516;-89
2020/12/26 23:30:31;;;;;;;16.70;7.57;;;-0.10;99.90;;;;;;1861690;29;20577;-89
2020/12/26 23:33:19;;;;;;;17.37;7.87;;;-0.10;99.90;;;;;;1986694;29;20164;-90
2020/12/26 23:36:54;;;;;;;15.02;7.22;;;-0.10;99.90;;;;;;1079247;29;20425;-84
2020/12/26 23:46:55;;;;;;;13.70;7.72;;;-0.20;99.90;;;;;;1859536;29;20514;-88
2020/12/26 23:50:01;;;;;;;15.27;7.37;;;-0.20;99.90;;;;;;724767;29;21936;-89
2020/12/26 23:59:13;;;;;;;10.00;6.18;;;-0.20;99.90;;;;;;1853373;29;20414;-90
